sensor_id;sensor_type;location;lat;lon;timestamp;temperature;humidity
20504;DHT22;10410;51.046;6.980;2024-03-07T00:01:31;5.40;99.90
20504;DHT22;10410;51.046;6.980;2024-03-07T00:08:32;5.30;99.90
20504;DHT22;10410;51.046;6.980;2024-03-07T00:15:32;5.20;99.90
20504;DHT22;10410;51.046;6.980;2024-03-07T00:22:33;5.20;99.90
20504;DHT22;10410;51.046;6.980;2024-03-07T00:29:33;5.10;99.90
20504;DHT22;10410;51.046;6.980;2024-03-07T00:36:38;5.10;99.90
20504;DHT22;10410;51.046;6.980;2024-03-07T00:43:38;5.00;99.90
20504;DHT22;10410;51.046;6.980;2024-03-07T00:50:39;4.90;99.90
20504;DHT22;10410;51.046;6.980;2024-03-07T00:57:42;4.80;99.90
20504;DHT22;10410;51.046;6.980;2024-03-07T01:04:43;4.70;99.90
20504;DHT22;10410;51.046;6.980;2024-03-07T01:11:44;4.60;99.90
20504;DHT22;10410;51.046;6.980;2024-03-07T01:18:46;4.50;99.90
20504;DHT22;10410;51.046;6.980;2024-03-07T01:25:46;4.40;99.90
20504;DHT22;10410;51.046;6.980;2024-03-07T01:32:47;4.30;99.90
20504;DHT22;10410;51.046;6.980;2024-03-07T01:39:47;4.30;99.90
20504;DHT22;10410;51.046;6.980;2024-03-07T01:46:48;4.30;99.90
20504;DHT22;10410;51.046;6.980;2024-03-07T01:53:52;4.30;99.90
20504;DHT22;10410;51.046;6.980;2024-03-07T02:00:53;4.30;99.90
20504;DHT22;10410;51.046;6.980;2024-03-07T02:07:53;4.30;99.90
20504;DHT22;10410;51.046;6.980;2024-03-07T02:14:54;4.30;99.90
20504;DHT22;10410;51.046;6.980;2024-03-07T02:21:54;4.20;99.90
20504;DHT22;10410;51.046;6.980;2024-03-07T02:28:55;4.20;99.90
20504;DHT22;10410;51.046;6.980;2024-03-07T02:35:55;4.20;99.90
20504;DHT22;10410;51.046;6.980;2024-03-07T02:42:55;4.20;99.90
20504;DHT22;10410;51.046;6.980;2024-03-07T02:49:56;4.20;99.90
20504;DHT22;10410;51.046;6.980;2024-03-07T02:56:57;4.20;99.90
20504;DHT22;10410;51.046;6.980;2024-03-07T03:03:57;4.20;99.90
20504;DHT22;10410;51.046;6.980;2024-03-07T03:10:58;4.20;99.90
20504;DHT22;10410;51.046;6.980;2024-03-07T03:17:58;4.20;99.90
20504;DHT22;10410;51.046;6.980;2024-03-07T03:25:00;4.20;99.90
20504;DHT22;10410;51.046;6.980;2024-03-07T03:32:01;4.10;99.90
20504;DHT22;10410;51.046;6.980;2024-03-07T03:39:02;4.10;99.90
20504;DHT22;10410;51.046;6.980;2024-03-07T03:46:02;4.10;99.90
20504;DHT22;10410;51.046;6.980;2024-03-07T03:53:03;4.10;99.90
20504;DHT22;10410;51.046;6.980;2024-03-07T04:00:07;4.00;99.90
20504;DHT22;10410;51.046;6.980;2024-03-07T04:07:15;4.00;99.90
20504;DHT22;10410;51.046;6.980;2024-03-07T04:14:18;3.90;99.90
20504;DHT22;10410;51.046;6.980;2024-03-07T04:21:20;3.90;99.90
20504;DHT22;10410;51.046;6.980;2024-03-07T04:28:20;3.80;99.90
20504;DHT22;10410;51.046;6.980;2024-03-07T04:35:22;3.80;99.90
20504;DHT22;10410;51.046;6.980;2024-03-07T04:42:23;3.70;99.90
20504;DHT22;10410;51.046;6.980;2024-03-07T04:49:24;3.70;99.90
20504;DHT22;10410;51.046;6.980;2024-03-07T04:56:25;3.60;99.90
20504;DHT22;10410;51.046;6.980;2024-03-07T05:03:25;3.40;99.90
20504;DHT22;10410;51.046;6.980;2024-03-07T05:10:28;3.30;99.90
20504;DHT22;10410;51.046;6.980;2024-03-07T05:17:30;3.20;99.90
20504;DHT22;10410;51.046;6.980;2024-03-07T05:24:34;3.10;99.90
20504;DHT22;10410;51.046;6.980;2024-03-07T05:31:39;3.00;99.90
20504;DHT22;10410;51.046;6.980;2024-03-07T05:38:47;3.00;99.90
20504;DHT22;10410;51.046;6.980;2024-03-07T05:45:47;2.90;99.90
20504;DHT22;10410;51.046;6.980;2024-03-07T05:52:48;2.80;99.90
20504;DHT22;10410;51.046;6.980;2024-03-07T05:59:49;2.70;99.90
20504;DHT22;10410;51.046;6.980;2024-03-07T06:06:50;2.70;99.90
20504;DHT22;10410;51.046;6.980;2024-03-07T06:13:51;2.70;99.90
20504;DHT22;10410;51.046;6.980;2024-03-07T06:20:52;2.70;99.90
20504;DHT22;10410;51.046;6.980;2024-03-07T06:27:52;2.80;99.90
20504;DHT22;10410;51.046;6.980;2024-03-07T06:34:53;2.80;99.90
20504;DHT22;10410;51.046;6.980;2024-03-07T06:41:53;2.90;99.90
20504;DHT22;10410;51.046;6.980;2024-03-07T06:48:54;3.00;99.90
20504;DHT22;10410;51.046;6.980;2024-03-07T06:55:56;3.10;99.90
20504;DHT22;10410;51.046;6.980;2024-03-07T07:02:56;3.30;99.90
20504;DHT22;10410;51.046;6.980;2024-03-07T07:09:57;3.30;99.90
20504;DHT22;10410;51.046;6.980;2024-03-07T07:16:58;3.40;99.90
20504;DHT22;10410;51.046;6.980;2024-03-07T07:24:01;3.60;99.90
20504;DHT22;10410;51.046;6.980;2024-03-07T07:31:04;3.80;99.90
20504;DHT22;10410;51.046;6.980;2024-03-07T07:38:05;3.90;99.90
20504;DHT22;10410;51.046;6.980;2024-03-07T07:45:08;4.10;99.90
20504;DHT22;10410;51.046;6.980;2024-03-07T07:52:11;4.30;99.90
20504;DHT22;10410;51.046;6.980;2024-03-07T07:59:12;4.50;99.90
20504;DHT22;10410;51.046;6.980;2024-03-07T08:06:12;4.70;99.90
20504;DHT22;10410;51.046;6.980;2024-03-07T08:13:13;4.90;99.90
20504;DHT22;10410;51.046;6.980;2024-03-07T08:20:15;5.10;99.90
20504;DHT22;10410;51.046;6.980;2024-03-07T08:27:16;5.30;99.90
20504;DHT22;10410;51.046;6.980;2024-03-07T08:34:18;5.50;99.90
20504;DHT22;10410;51.046;6.980;2024-03-07T08:41:18;5.70;99.90
20504;DHT22;10410;51.046;6.980;2024-03-07T08:48:19;6.00;99.90
20504;DHT22;10410;51.046;6.980;2024-03-07T08:55:23;6.20;99.90
20504;DHT22;10410;51.046;6.980;2024-03-07T09:02:27;6.40;99.90
20504;DHT22;10410;51.046;6.980;2024-03-07T09:09:27;6.50;99.90
20504;DHT22;10410;51.046;6.980;2024-03-07T09:16:27;6.70;99.90
20504;DHT22;10410;51.046;6.980;2024-03-07T09:23:28;6.80;99.90
20504;DHT22;10410;51.046;6.980;2024-03-07T09:30:28;6.90;99.90
20504;DHT22;10410;51.046;6.980;2024-03-07T09:37:30;7.00;99.90
20504;DHT22;10410;51.046;6.980;2024-03-07T09:44:31;7.20;99.90
20504;DHT22;10410;51.046;6.980;2024-03-07T09:51:34;7.40;99.90
20504;DHT22;10410;51.046;6.980;2024-03-07T09:58:36;7.50;99.90
20504;DHT22;10410;51.046;6.980;2024-03-07T10:05:40;7.70;99.90
20504;DHT22;10410;51.046;6.980;2024-03-07T10:12:41;7.80;99.90
20504;DHT22;10410;51.046;6.980;2024-03-07T10:19:42;7.90;99.90
20504;DHT22;10410;51.046;6.980;2024-03-07T10:26:43;8.00;99.90
20504;DHT22;10410;51.046;6.980;2024-03-07T10:33:43;8.30;99.90
20504;DHT22;10410;51.046;6.980;2024-03-07T10:40:47;8.50;99.90
20504;DHT22;10410;51.046;6.980;2024-03-07T10:47:53;8.80;99.90
20504;DHT22;10410;51.046;6.980;2024-03-07T11:02:42;9.00;99.90
20504;DHT22;10410;51.046;6.980;2024-03-07T11:09:47;9.00;99.90
20504;DHT22;10410;51.046;6.980;2024-03-07T11:16:49;9.00;99.90
20504;DHT22;10410;51.046;6.980;2024-03-07T11:23:50;9.00;99.90
20504;DHT22;10410;51.046;6.980;2024-03-07T11:30:50;9.10;99.90
20504;DHT22;10410;51.046;6.980;2024-03-07T11:37:56;9.20;99.90
20504;DHT22;10410;51.046;6.980;2024-03-07T11:44:59;9.40;99.90
20504;DHT22;10410;51.046;6.980;2024-03-07T11:51:59;9.60;99.90
20504;DHT22;10410;51.046;6.980;2024-03-07T11:59:00;9.80;99.90
20504;DHT22;10410;51.046;6.980;2024-03-07T12:06:03;9.90;99.90
20504;DHT22;10410;51.046;6.980;2024-03-07T12:13:04;9.90;99.90
20504;DHT22;10410;51.046;6.980;2024-03-07T12:20:05;10.00;99.90
20504;DHT22;10410;51.046;6.980;2024-03-07T12:27:25;10.20;99.90
20504;DHT22;10410;51.046;6.980;2024-03-07T12:34:26;10.50;99.90
20504;DHT22;10410;51.046;6.980;2024-03-07T12:41:30;10.60;99.90
20504;DHT22;10410;51.046;6.980;2024-03-07T12:48:31;10.60;99.90
20504;DHT22;10410;51.046;6.980;2024-03-07T12:55:32;10.70;99.90
20504;DHT22;10410;51.046;6.980;2024-03-07T13:02:33;10.70;99.90
20504;DHT22;10410;51.046;6.980;2024-03-07T13:09:33;10.80;99.90
20504;DHT22;10410;51.046;6.980;2024-03-07T13:16:34;10.80;99.90
20504;DHT22;10410;51.046;6.980;2024-03-07T13:23:34;10.80;99.90
20504;DHT22;10410;51.046;6.980;2024-03-07T13:30:36;10.70;99.90
20504;DHT22;10410;51.046;6.980;2024-03-07T13:37:37;10.80;99.90
20504;DHT22;10410;51.046;6.980;2024-03-07T13:44:37;10.70;99.90
20504;DHT22;10410;51.046;6.980;2024-03-07T13:51:43;10.60;99.90
20504;DHT22;10410;51.046;6.980;2024-03-07T14:06:06;10.50;99.90
20504;DHT22;10410;51.046;6.980;2024-03-07T14:13:36;10.50;99.90
20504;DHT22;10410;51.046;6.980;2024-03-07T14:21:04;10.50;99.90
20504;DHT22;10410;51.046;6.980;2024-03-07T14:28:31;10.50;99.90
20504;DHT22;10410;51.046;6.980;2024-03-07T14:35:58;10.60;99.90
20504;DHT22;10410;51.046;6.980;2024-03-07T14:43:01;10.70;99.90
20504;DHT22;10410;51.046;6.980;2024-03-07T14:50:05;10.60;99.90
20504;DHT22;10410;51.046;6.980;2024-03-07T14:57:10;10.70;99.90
20504;DHT22;10410;51.046;6.980;2024-03-07T15:04:11;11.10;99.90
20504;DHT22;10410;51.046;6.980;2024-03-07T15:11:39;12.00;99.90
20504;DHT22;10410;51.046;6.980;2024-03-07T15:18:40;12.60;99.90
20504;DHT22;10410;51.046;6.980;2024-03-07T15:25:43;12.30;99.90
20504;DHT22;10410;51.046;6.980;2024-03-07T15:32:45;11.90;99.90
20504;DHT22;10410;51.046;6.980;2024-03-07T15:39:46;12.00;99.90
20504;DHT22;10410;51.046;6.980;2024-03-07T15:46:48;11.70;99.90
20504;DHT22;10410;51.046;6.980;2024-03-07T15:53:49;11.60;99.90
20504;DHT22;10410;51.046;6.980;2024-03-07T16:00:49;11.20;99.90
20504;DHT22;10410;51.046;6.980;2024-03-07T16:07:51;10.70;99.90
20504;DHT22;10410;51.046;6.980;2024-03-07T16:14:52;10.40;99.90
20504;DHT22;10410;51.046;6.980;2024-03-07T16:21:56;10.20;99.90
20504;DHT22;10410;51.046;6.980;2024-03-07T16:28:56;10.10;99.90
20504;DHT22;10410;51.046;6.980;2024-03-07T16:35:57;10.00;99.90
20504;DHT22;10410;51.046;6.980;2024-03-07T16:42:59;9.90;99.90
20504;DHT22;10410;51.046;6.980;2024-03-07T16:50:01;9.80;99.90
20504;DHT22;10410;51.046;6.980;2024-03-07T16:57:01;9.60;99.90
20504;DHT22;10410;51.046;6.980;2024-03-07T17:04:02;9.40;99.90
20504;DHT22;10410;51.046;6.980;2024-03-07T17:11:03;9.30;99.90
20504;DHT22;10410;51.046;6.980;2024-03-07T17:18:07;9.10;99.90
20504;DHT22;10410;51.046;6.980;2024-03-07T17:25:11;9.00;99.90
20504;DHT22;10410;51.046;6.980;2024-03-07T17:32:16;8.80;99.90
20504;DHT22;10410;51.046;6.980;2024-03-07T17:39:16;8.70;99.90
20504;DHT22;10410;51.046;6.980;2024-03-07T17:46:17;8.60;99.90
20504;DHT22;10410;51.046;6.980;2024-03-07T17:53:21;8.50;99.90
20504;DHT22;10410;51.046;6.980;2024-03-07T18:00:22;8.50;99.90
20504;DHT22;10410;51.046;6.980;2024-03-07T18:07:28;8.40;99.90
20504;DHT22;10410;51.046;6.980;2024-03-07T18:14:28;8.30;99.90
20504;DHT22;10410;51.046;6.980;2024-03-07T18:21:33;8.30;99.90
20504;DHT22;10410;51.046;6.980;2024-03-07T18:28:34;8.30;99.90
20504;DHT22;10410;51.046;6.980;2024-03-07T18:35:38;8.30;99.90
20504;DHT22;10410;51.046;6.980;2024-03-07T18:42:38;8.20;99.90
20504;DHT22;10410;51.046;6.980;2024-03-07T18:49:39;8.20;99.90
20504;DHT22;10410;51.046;6.980;2024-03-07T18:56:40;8.20;99.90
20504;DHT22;10410;51.046;6.980;2024-03-07T19:03:40;8.20;99.90
20504;DHT22;10410;51.046;6.980;2024-03-07T19:10:42;8.10;99.90
20504;DHT22;10410;51.046;6.980;2024-03-07T19:17:42;8.00;99.90
20504;DHT22;10410;51.046;6.980;2024-03-07T19:24:43;8.00;99.90
20504;DHT22;10410;51.046;6.980;2024-03-07T19:31:47;7.90;99.90
20504;DHT22;10410;51.046;6.980;2024-03-07T19:38:48;7.80;99.90
20504;DHT22;10410;51.046;6.980;2024-03-07T19:45:49;7.70;99.90
20504;DHT22;10410;51.046;6.980;2024-03-07T19:52:49;7.50;99.90
20504;DHT22;10410;51.046;6.980;2024-03-07T19:59:50;7.40;99.90
20504;DHT22;10410;51.046;6.980;2024-03-07T20:06:51;7.20;99.90
20504;DHT22;10410;51.046;6.980;2024-03-07T20:13:52;7.20;99.90
20504;DHT22;10410;51.046;6.980;2024-03-07T20:20:53;7.00;99.90
20504;DHT22;10410;51.046;6.980;2024-03-07T20:27:53;6.90;99.90
20504;DHT22;10410;51.046;6.980;2024-03-07T20:34:56;6.70;99.90
20504;DHT22;10410;51.046;6.980;2024-03-07T20:42:00;6.60;99.90
20504;DHT22;10410;51.046;6.980;2024-03-07T20:49:00;6.40;99.90
20504;DHT22;10410;51.046;6.980;2024-03-07T20:56:01;6.30;99.90
20504;DHT22;10410;51.046;6.980;2024-03-07T21:03:07;6.20;99.90
20504;DHT22;10410;51.046;6.980;2024-03-07T21:10:09;6.10;99.90
20504;DHT22;10410;51.046;6.980;2024-03-07T21:17:11;6.00;99.90
20504;DHT22;10410;51.046;6.980;2024-03-07T21:24:11;5.90;99.90
20504;DHT22;10410;51.046;6.980;2024-03-07T21:31:13;5.80;99.90
20504;DHT22;10410;51.046;6.980;2024-03-07T21:38:15;5.70;99.90
20504;DHT22;10410;51.046;6.980;2024-03-07T21:45:16;5.60;99.90
20504;DHT22;10410;51.046;6.980;2024-03-07T21:52:17;5.50;99.90
20504;DHT22;10410;51.046;6.980;2024-03-07T21:59:17;5.40;99.90
20504;DHT22;10410;51.046;6.980;2024-03-07T22:06:18;5.30;99.90
20504;DHT22;10410;51.046;6.980;2024-03-07T22:13:19;5.20;99.90
20504;DHT22;10410;51.046;6.980;2024-03-07T22:20:20;5.20;99.90
20504;DHT22;10410;51.046;6.980;2024-03-07T22:27:22;5.10;99.90
20504;DHT22;10410;51.046;6.980;2024-03-07T22:34:23;5.00;99.90
20504;DHT22;10410;51.046;6.980;2024-03-07T22:41:25;5.00;99.90
20504;DHT22;10410;51.046;6.980;2024-03-07T22:48:25;4.90;99.90
20504;DHT22;10410;51.046;6.980;2024-03-07T22:55:26;4.80;99.90
20504;DHT22;10410;51.046;6.980;2024-03-07T23:02:26;4.80;99.90
20504;DHT22;10410;51.046;6.980;2024-03-07T23:09:26;4.70;99.90
20504;DHT22;10410;51.046;6.980;2024-03-07T23:16:27;4.70;99.90
20504;DHT22;10410;51.046;6.980;2024-03-07T23:23:28;4.60;99.90
20504;DHT22;10410;51.046;6.980;2024-03-07T23:30:29;4.50;99.90
20504;DHT22;10410;51.046;6.980;2024-03-07T23:37:34;4.40;99.90
20504;DHT22;10410;51.046;6.980;2024-03-07T23:44:34;4.30;99.90
20504;DHT22;10410;51.046;6.980;2024-03-07T23:51:34;4.30;99.90
20504;DHT22;10410;51.046;6.980;2024-03-07T23:58:36;4.20;99.90
